Time;durP1;ratioP1;P1;durP2;ratioP2;P2;SDS_P1;SDS_P2;PMS_P1;PMS_P2;Temp;Humidity;BMP_temperature;BMP_pressure;BME280_temperature;BME280_humidity;BME280_pressure;Samples;Min_cycle;Max_cycle;Signal;HPM_P1;HPM_P2
2022/10/19 00:02:02;;;;;;;34.23;32.10;;;;;;;11.27;100.00;102645.75;5051785;28;20431;-51
2022/10/19 00:04:29;;;;;;;35.57;33.20;;;;;;;11.29;100.00;102641.94;5051886;28;20498;-50
2022/10/19 00:06:57;;;;;;;35.53;32.33;;;;;;;11.31;100.00;102644.47;5051836;28;20475;-50
2022/10/19 00:09:26;;;;;;;35.83;32.93;;;;;;;11.33;100.00;102648.66;5052810;28;20463;-54
2022/10/19 00:11:53;;;;;;;33.93;31.33;;;;;;;11.32;100.00;102641.63;5051816;28;20481;-54
2022/10/19 00:14:23;;;;;;;33.10;31.03;;;;;;;11.28;100.00;102639.44;5051767;28;20944;-52
2022/10/19 00:16:53;;;;;;;34.80;32.00;;;;;;;11.27;100.00;102653.78;5051595;28;20509;-54
2022/10/19 00:19:25;;;;;;;36.90;33.37;;;;;;;11.28;100.00;102656.31;5051165;28;20463;-55
2022/10/19 00:21:53;;;;;;;34.13;31.90;;;;;;;11.32;100.00;102656.84;5044297;28;20485;-54
2022/10/19 00:24:21;;;;;;;34.90;32.60;;;;;;;11.26;100.00;102652.94;5051547;28;21006;-52
2022/10/19 00:26:50;;;;;;;34.60;32.10;;;;;;;11.28;100.00;102653.63;5051489;28;20528;-52
2022/10/19 00:29:17;;;;;;;34.60;32.47;;;;;;;11.29;100.00;102660.63;5051173;28;20516;-54
2022/10/19 00:31:45;;;;;;;33.80;31.70;;;;;;;11.29;100.00;102654.47;5051486;28;20428;-49
2022/10/19 00:34:12;;;;;;;37.23;34.27;;;;;;;11.28;100.00;102650.97;5051362;28;20446;-52
2022/10/19 00:36:41;;;;;;;35.50;33.00;;;;;;;11.29;100.00;102657.97;5051588;28;20499;-54
2022/10/19 00:39:11;;;;;;;36.50;33.87;;;;;;;11.29;100.00;102663.31;5051166;28;20468;-53
2022/10/19 00:41:39;;;;;;;36.30;33.43;;;;;;;11.33;100.00;102655.81;5051338;28;20501;-52
2022/10/19 00:44:40;;;;;;;34.47;32.47;;;;;;;11.33;100.00;102666.50;5051485;28;20431;-51
2022/10/19 00:47:09;;;;;;;36.30;33.67;;;;;;;11.33;100.00;102667.34;5095791;22;21089;-49
2022/10/19 00:49:42;;;;;;;34.97;32.90;;;;;;;11.36;100.00;102668.88;5091122;28;20461;-45
2022/10/19 00:52:14;;;;;;;35.73;32.87;;;;;;;11.30;100.00;102677.50;5091478;28;20425;-48
2022/10/19 00:54:43;;;;;;;35.10;32.80;;;;;;;11.29;100.00;102681.19;5091567;28;20429;-47
2022/10/19 00:57:12;;;;;;;36.07;33.87;;;;;;;11.25;100.00;102669.97;5080267;28;20598;-45
2022/10/19 00:59:41;;;;;;;36.07;33.70;;;;;;;11.20;100.00;102666.09;5070897;28;20879;-50
2022/10/19 01:02:10;;;;;;;35.00;32.80;;;;;;;11.14;100.00;102672.03;5071252;28;20438;-47
2022/10/19 01:04:40;;;;;;;35.50;32.83;;;;;;;11.08;100.00;102674.31;5071323;28;20434;-47
2022/10/19 01:07:08;;;;;;;37.47;34.37;;;;;;;11.00;100.00;102682.25;5071131;28;20507;-49
2022/10/19 01:09:36;;;;;;;34.67;32.57;;;;;;;10.93;100.00;102675.03;5070682;28;20453;-49
2022/10/19 01:12:10;;;;;;;35.03;32.83;;;;;;;10.85;100.00;102672.25;5071235;28;20427;-46
2022/10/19 01:14:54;;;;;;;36.20;33.57;;;;;;;10.80;100.00;102674.53;5071352;28;20494;-48
2022/10/19 01:17:35;;;;;;;35.63;33.60;;;;;;;10.78;100.00;102687.22;5071200;28;20852;-47
2022/10/19 01:20:40;;;;;;;36.03;33.93;;;;;;;10.76;100.00;102683.81;5068879;28;20447;-48
2022/10/19 01:23:33;;;;;;;36.63;34.30;;;;;;;10.71;100.00;102680.78;5057868;28;21024;-46
2022/10/19 01:26:13;;;;;;;36.23;33.93;;;;;;;10.69;100.00;102688.09;5074679;28;20487;-46
2022/10/19 01:28:53;;;;;;;37.67;34.80;;;;;;;10.66;100.00;102685.72;5074328;28;20974;-46
2022/10/19 01:31:27;;;;;;;35.20;33.10;;;;;;;10.61;100.00;102678.16;5074692;28;20426;-44
2022/10/19 01:34:03;;;;;;;34.70;32.70;;;;;;;10.54;100.00;102683.25;5074603;28;20934;-49
2022/10/19 01:36:39;;;;;;;35.90;33.40;;;;;;;10.48;100.00;102683.84;5074458;28;20442;-47
2022/10/19 01:39:11;;;;;;;35.33;32.80;;;;;;;10.41;100.00;102684.59;5074230;28;20453;-47
2022/10/19 01:41:47;;;;;;;35.97;33.47;;;;;;;10.31;100.00;102689.97;5074530;28;20472;-49
2022/10/19 01:44:21;;;;;;;36.37;33.83;;;;;;;10.28;100.00;102697.44;5074510;28;20426;-45
2022/10/19 01:46:55;;;;;;;35.67;33.20;;;;;;;10.23;100.00;102695.22;5074233;28;20466;-45
2022/10/19 01:49:29;;;;;;;36.93;34.63;;;;;;;10.21;100.00;102693.69;5073988;28;20466;-46
2022/10/19 01:52:01;;;;;;;38.27;34.37;;;;;;;10.17;100.00;102698.47;5074284;28;20768;-47
2022/10/19 01:54:34;;;;;;;35.57;32.93;;;;;;;10.16;100.00;102698.59;5074493;28;20434;-44
2022/10/19 01:57:05;;;;;;;37.77;33.40;;;;;;;10.14;100.00;102708.59;5074875;28;20446;-47
2022/10/19 01:59:34;;;;;;;34.33;32.03;;;;;;;10.10;100.00;102697.31;5074360;28;20454;-47
2022/10/19 02:02:04;;;;;;;37.27;33.60;;;;;;;10.07;100.00;102694.09;5074646;28;20495;-48
2022/10/19 02:04:34;;;;;;;36.40;33.57;;;;;;;10.05;100.00;102699.59;5074475;28;20950;-48
2022/10/19 02:07:03;;;;;;;36.43;33.53;;;;;;;10.03;100.00;102688.25;5074654;28;20454;-47
2022/10/19 02:09:31;;;;;;;37.47;34.63;;;;;;;10.00;100.00;102693.88;5074235;28;20458;-45
2022/10/19 02:12:03;;;;;;;35.40;32.80;;;;;;;9.95;100.00;102694.28;5074245;28;20483;-48
2022/10/19 02:14:35;;;;;;;34.23;32.20;;;;;;;9.88;100.00;102692.38;5074709;28;20850;-47
2022/10/19 02:17:08;;;;;;;34.07;32.17;;;;;;;9.80;100.00;102693.06;5074491;28;20834;-49
2022/10/19 02:19:35;;;;;;;34.70;32.17;;;;;;;9.71;100.00;102693.94;5071813;28;20854;-47
2022/10/19 02:22:04;;;;;;;34.27;32.00;;;;;;;9.65;100.00;102694.50;5068056;28;20431;-45
2022/10/19 02:24:31;;;;;;;33.73;31.73;;;;;;;9.62;100.00;102683.28;5074352;28;20435;-46
2022/10/19 02:27:00;;;;;;;34.47;31.70;;;;;;;9.56;100.00;102682.03;5074202;28;20512;-45
2022/10/19 02:29:28;;;;;;;35.10;32.37;;;;;;;9.53;100.00;102682.34;5073460;28;20462;-46
2022/10/19 02:31:56;;;;;;;35.17;32.53;;;;;;;9.50;100.00;102684.47;5073799;28;20461;-46
2022/10/19 02:34:25;;;;;;;34.00;31.67;;;;;;;9.47;100.00;102692.75;5074340;28;20434;-47
2022/10/19 02:36:53;;;;;;;36.07;33.53;;;;;;;9.43;100.00;102686.84;5073850;28;20508;-47
2022/10/19 02:39:21;;;;;;;36.80;33.20;;;;;;;9.44;100.00;102691.16;5073690;28;20512;-45
2022/10/19 02:41:52;;;;;;;35.47;32.43;;;;;;;9.48;100.00;102689.06;5074105;28;20434;-45
2022/10/19 02:44:24;;;;;;;35.80;32.57;;;;;;;9.49;100.00;102691.59;5074109;28;20422;-44
2022/10/19 02:46:58;;;;;;;35.03;32.03;;;;;;;9.49;100.00;102699.59;5073802;28;21152;-50
2022/10/19 02:49:28;;;;;;;34.77;31.50;;;;;;;9.52;100.00;102701.97;5073235;28;20470;-45
2022/10/19 02:51:59;;;;;;;35.50;33.13;;;;;;;9.53;100.00;102702.81;5073585;28;20422;-46
2022/10/19 02:54:27;;;;;;;34.13;31.73;;;;;;;9.53;100.00;102702.81;5073625;28;20534;-48
2022/10/19 02:56:56;;;;;;;34.60;32.03;;;;;;;9.52;100.00;102704.66;5073728;28;20446;-45
2022/10/19 02:59:24;;;;;;;35.10;32.20;;;;;;;9.52;100.00;102711.78;5073375;28;20862;-49
2022/10/19 03:01:52;;;;;;;34.90;32.20;;;;;;;9.53;100.00;102713.47;5073160;28;20954;-45
2022/10/19 03:04:20;;;;;;;37.30;34.00;;;;;;;9.50;100.00;102717.25;5073717;28;20439;-46
2022/10/19 03:06:49;;;;;;;36.10;33.10;;;;;;;9.49;100.00;102714.72;5073590;28;20465;-48
2022/10/19 03:09:16;;;;;;;35.03;32.50;;;;;;;9.48;100.00;102713.88;5071829;28;20475;-46
2022/10/19 03:11:44;;;;;;;35.20;32.10;;;;;;;9.46;100.00;102705.22;5072628;28;20495;-47
2022/10/19 03:14:11;;;;;;;36.27;33.27;;;;;;;9.42;100.00;102704.66;5073191;28;20487;-47
2022/10/19 03:16:39;;;;;;;34.63;31.83;;;;;;;9.42;100.00;102709.13;5072807;28;20458;-45
2022/10/19 03:19:07;;;;;;;35.40;32.60;;;;;;;9.39;100.00;102715.56;5071976;28;20870;-47
2022/10/19 03:21:35;;;;;;;35.47;32.33;;;;;;;9.37;100.00;102711.38;5064571;28;20434;-47
2022/10/19 03:24:04;;;;;;;36.07;32.53;;;;;;;9.34;100.00;102723.16;5073179;28;20438;-45
2022/10/19 03:26:32;;;;;;;33.63;31.33;;;;;;;9.31;100.00;102707.47;5073082;28;20500;-47
2022/10/19 03:29:00;;;;;;;34.93;32.50;;;;;;;9.29;100.00;102716.53;5072383;28;20478;-48
2022/10/19 03:31:27;;;;;;;34.87;31.80;;;;;;;9.26;100.00;102725.66;5073189;28;20521;-45
2022/10/19 03:33:55;;;;;;;34.80;32.10;;;;;;;9.27;100.00;102722.03;5073033;28;20443;-47
2022/10/19 03:36:24;;;;;;;35.30;32.10;;;;;;;9.25;100.00;102729.31;5072851;28;20500;-46
2022/10/19 03:38:52;;;;;;;33.80;30.90;;;;;;;9.26;100.00;102720.34;5072798;28;20861;-46
2022/10/19 03:41:23;;;;;;;36.80;33.67;;;;;;;9.27;100.00;102735.34;5072217;28;20939;-47
2022/10/19 03:43:51;;;;;;;35.03;32.33;;;;;;;9.26;100.00;102736.31;5072450;28;20434;-46
2022/10/19 03:46:19;;;;;;;36.13;32.37;;;;;;;9.26;100.00;102749.63;5072374;28;20504;-48
2022/10/19 03:48:47;;;;;;;35.07;32.43;;;;;;;9.25;100.00;102734.66;5072011;28;20478;-49
2022/10/19 03:51:17;;;;;;;36.93;33.40;;;;;;;9.24;100.00;102740.09;5072658;28;20769;-47
2022/10/19 03:53:45;;;;;;;35.20;32.30;;;;;;;9.25;100.00;102744.44;5072653;28;20971;-49
2022/10/19 03:56:15;;;;;;;34.60;31.80;;;;;;;9.25;100.00;102749.78;5072198;28;20442;-45
2022/10/19 03:58:46;;;;;;;37.03;33.23;;;;;;;9.23;100.00;102741.91;5072211;28;20466;-49
2022/10/19 04:01:16;;;;;;;35.40;32.57;;;;;;;9.22;100.00;102750.91;5072231;28;20429;-46
2022/10/19 04:03:44;;;;;;;35.03;32.13;;;;;;;9.25;100.00;102745.28;5072422;28;20475;-45
2022/10/19 04:06:14;;;;;;;35.90;32.40;;;;;;;9.30;100.00;102751.03;5072585;28;20504;-47
2022/10/19 04:08:48;;;;;;;34.97;32.37;;;;;;;9.32;100.00;102754.38;5071764;28;20474;-44
2022/10/19 04:11:18;;;;;;;35.97;32.87;;;;;;;9.37;100.00;102756.66;5072080;28;20438;-45
2022/10/19 04:13:49;;;;;;;37.40;33.47;;;;;;;9.40;100.00;102767.03;5072544;28;20434;-44
2022/10/19 04:16:17;;;;;;;35.17;31.53;;;;;;;9.43;100.00;102766.75;5072484;28;20449;-45
2022/10/19 04:18:45;;;;;;;34.30;31.50;;;;;;;9.44;100.00;102771.91;5071595;28;20458;-46
2022/10/19 04:21:21;;;;;;;34.20;31.40;;;;;;;9.50;100.00;102775.00;5063127;28;20445;-45
2022/10/19 04:23:50;;;;;;;35.97;32.77;;;;;;;9.52;100.00;102779.22;5052169;28;20438;-47
2022/10/19 04:26:18;;;;;;;37.27;33.40;;;;;;;9.54;100.00;102782.56;5051754;28;20444;-49
2022/10/19 04:28:46;;;;;;;35.90;32.70;;;;;;;9.59;100.00;102782.97;5051154;28;20471;-46
2022/10/19 04:31:15;;;;;;;37.10;33.30;;;;;;;9.60;100.00;102781.16;5051622;28;20431;-49
2022/10/19 04:33:43;;;;;;;35.07;32.47;;;;;;;9.64;100.00;102783.41;5051590;28;21093;-48
2022/10/19 04:36:12;;;;;;;36.90;33.53;;;;;;;9.68;100.00;102794.63;5051706;28;20501;-49
2022/10/19 04:38:39;;;;;;;33.87;31.47;;;;;;;9.71;100.00;102791.66;5051392;28;20813;-50
2022/10/19 04:41:09;;;;;;;35.57;32.50;;;;;;;9.74;100.00;102792.22;5051292;28;20489;-50
2022/10/19 04:43:37;;;;;;;36.67;33.63;;;;;;;9.77;100.00;102797.28;5051652;28;20955;-47
2022/10/19 04:46:07;;;;;;;35.43;32.50;;;;;;;9.79;100.00;102794.50;5051316;28;20476;-46
2022/10/19 04:48:37;;;;;;;35.93;32.80;;;;;;;9.80;100.00;102801.47;5051099;28;20521;-46
2022/10/19 04:51:06;;;;;;;43.27;34.00;;;;;;;9.83;100.00;102803.84;5051557;28;20845;-47
2022/10/19 04:53:34;;;;;;;34.23;31.70;;;;;;;9.84;100.00;102797.56;5053599;28;20438;-48
2022/10/19 04:56:05;;;;;;;35.83;33.00;;;;;;;9.84;100.00;102810.88;5055495;28;20435;-46
2022/10/19 04:58:33;;;;;;;36.60;33.03;;;;;;;9.86;100.00;102809.75;5054905;28;20532;-46
2022/10/19 05:01:07;;;;;;;35.27;32.13;;;;;;;9.86;100.00;102815.09;5055407;28;20427;-48
2022/10/19 05:03:36;;;;;;;35.63;32.20;;;;;;;9.87;100.00;102821.25;5055523;28;20993;-48
2022/10/19 05:06:04;;;;;;;34.83;32.13;;;;;;;9.89;100.00;102822.78;5055474;28;20423;-48
2022/10/19 05:08:32;;;;;;;36.90;33.70;;;;;;;9.91;100.00;102815.53;5054775;28;20463;-46
2022/10/19 05:11:05;;;;;;;39.40;34.90;;;;;;;9.90;100.00;102821.81;5054793;28;20477;-45
2022/10/19 05:13:33;;;;;;;36.90;33.93;;;;;;;9.87;100.00;102816.78;5055410;28;20434;-48
2022/10/19 05:16:03;;;;;;;35.57;32.40;;;;;;;9.83;100.00;102810.03;5055270;28;20427;-49
2022/10/19 05:18:30;;;;;;;36.00;33.00;;;;;;;9.74;100.00;102813.53;5054661;28;20505;-46
2022/10/19 05:21:05;;;;;;;37.47;33.90;;;;;;;9.65;100.00;102818.88;5060390;28;20422;-48
2022/10/19 05:23:32;;;;;;;37.27;34.17;;;;;;;9.54;100.00;102822.53;5074769;28;20842;-48
2022/10/19 05:26:02;;;;;;;37.57;34.50;;;;;;;9.43;100.00;102830.66;5075037;28;20469;-49
2022/10/19 05:28:29;;;;;;;37.50;34.70;;;;;;;9.34;100.00;102831.47;5074490;28;20519;-45
2022/10/19 05:31:05;;;;;;;37.60;34.80;;;;;;;9.26;100.00;102829.50;5074411;28;20986;-45
2022/10/19 05:33:32;;;;;;;36.20;33.30;;;;;;;9.18;100.00;102824.00;5074929;28;20430;-45
2022/10/19 05:36:09;;;;;;;36.73;33.70;;;;;;;9.12;100.00;102823.72;5074617;28;20434;-48
2022/10/19 05:38:38;;;;;;;38.30;34.63;;;;;;;9.05;100.00;102826.06;5074332;28;20964;-51
2022/10/19 05:41:05;;;;;;;38.47;35.50;;;;;;;9.01;100.00;102827.34;5074519;28;20480;-45
2022/10/19 05:43:33;;;;;;;36.40;33.90;;;;;;;8.98;100.00;102829.44;5074405;28;20939;-49
2022/10/19 05:46:04;;;;;;;37.97;34.57;;;;;;;8.94;100.00;102830.66;5074231;28;20430;-46
2022/10/19 05:48:32;;;;;;;38.53;34.33;;;;;;;8.92;100.00;102828.16;5074051;28;20454;-46
2022/10/19 05:51:01;;;;;;;37.23;34.10;;;;;;;8.90;100.00;102830.09;5074517;28;20466;-45
2022/10/19 05:53:29;;;;;;;35.40;33.07;;;;;;;8.87;100.00;102823.22;5074316;28;21013;-47
2022/10/19 05:55:58;;;;;;;34.97;32.50;;;;;;;8.82;100.00;102827.25;5074372;28;20426;-48
2022/10/19 05:58:26;;;;;;;35.33;32.53;;;;;;;8.77;100.00;102825.03;5073725;28;20520;-47
2022/10/19 06:00:55;;;;;;;34.50;31.90;;;;;;;8.73;100.00;102834.25;5073976;28;20426;-47
2022/10/19 06:03:23;;;;;;;37.07;33.30;;;;;;;8.69;100.00;102827.50;5073951;28;20823;-49
2022/10/19 06:05:52;;;;;;;34.50;32.23;;;;;;;8.66;100.00;102826.94;5074015;28;20480;-47
2022/10/19 06:08:20;;;;;;;34.60;31.90;;;;;;;8.62;100.00;102825.50;5073771;28;20462;-47
2022/10/19 06:10:49;;;;;;;32.50;30.30;;;;;;;8.58;100.00;102830.25;5073857;28;20856;-46
2022/10/19 06:13:19;;;;;;;35.37;32.00;;;;;;;8.53;100.00;102828.97;5073991;28;20434;-45
2022/10/19 06:15:50;;;;;;;32.97;30.80;;;;;;;8.49;100.00;102831.03;5074215;28;20430;-46
2022/10/19 06:18:18;;;;;;;34.50;32.10;;;;;;;8.47;100.00;102837.47;5073787;28;20454;-48
2022/10/19 06:20:46;;;;;;;34.10;31.53;;;;;;;8.48;100.00;102839.16;5065413;28;20484;-46
2022/10/19 06:23:13;;;;;;;32.90;30.70;;;;;;;8.46;100.00;102836.63;5073867;28;20495;-45
2022/10/19 06:25:41;;;;;;;32.97;30.50;;;;;;;8.47;100.00;102840.97;5073887;28;20834;-47
2022/10/19 06:28:09;;;;;;;34.60;31.90;;;;;;;8.47;100.00;102840.97;5072901;28;20511;-45
2022/10/19 06:30:39;;;;;;;33.33;30.80;;;;;;;8.49;100.00;102846.16;5073773;28;20474;-50
2022/10/19 06:33:07;;;;;;;34.20;31.23;;;;;;;8.47;100.00;102846.28;5073695;28;20438;-47
2022/10/19 06:35:35;;;;;;;33.60;30.77;;;;;;;8.48;100.00;102857.78;5073754;28;20422;-47
2022/10/19 06:38:02;;;;;;;32.47;30.07;;;;;;;8.49;100.00;102859.44;5073134;28;20458;-47
2022/10/19 06:40:30;;;;;;;33.07;30.67;;;;;;;8.50;100.00;102853.16;5073365;28;20418;-45
2022/10/19 06:42:58;;;;;;;33.47;31.27;;;;;;;8.52;100.00;102860.03;5073113;28;20434;-46
2022/10/19 06:45:26;;;;;;;32.30;30.30;;;;;;;8.57;100.00;102859.66;5073539;28;20835;-50
2022/10/19 06:47:55;;;;;;;32.70;30.60;;;;;;;8.59;100.00;102860.34;5060666;22;20456;-55
2022/10/19 06:50:22;;;;;;;34.73;31.80;;;;;;;8.62;100.00;102860.09;5032995;28;20993;-51
2022/10/19 06:52:50;;;;;;;33.03;30.90;;;;;;;8.70;100.00;102865.56;5048667;28;20471;-50
2022/10/19 06:55:17;;;;;;;33.13;30.60;;;;;;;8.88;100.00;102866.63;5033056;28;20498;-48
2022/10/19 06:57:45;;;;;;;34.20;31.80;;;;;;;9.12;100.00;102868.97;5032547;28;20490;-52
2022/10/19 07:00:14;;;;;;;33.87;31.47;;;;;;;9.34;100.00;102871.41;5033226;28;20803;-48
2022/10/19 07:02:41;;;;;;;33.73;31.20;;;;;;;9.63;100.00;102866.13;5032966;28;20502;-53
2022/10/19 07:05:11;;;;;;;32.63;30.23;;;;;;;9.94;100.00;102871.22;5033328;28;20432;-55
2022/10/19 07:07:38;;;;;;;34.33;31.50;;;;;;;10.21;100.00;102877.66;5032398;28;20478;-54
2022/10/19 07:10:06;;;;;;;36.07;33.07;;;;;;;10.44;100.00;102885.19;5033218;28;20821;-56
2022/10/19 07:12:34;;;;;;;34.33;31.83;;;;;;;10.64;100.00;102880.66;5032843;28;20845;-54
2022/10/19 07:15:01;;;;;;;36.20;32.80;;;;;;;10.63;100.00;102881.66;5032232;28;20486;-52
2022/10/19 07:17:29;;;;;;;35.50;32.87;;;;;;;10.58;100.00;102881.22;5031947;28;20953;-49
2022/10/19 07:19:57;;;;;;;36.43;33.63;;;;;;;10.54;100.00;102885.19;5032640;28;20951;-49
2022/10/19 07:22:26;;;;;;;36.13;33.23;;;;;;;10.44;100.00;102885.19;5032269;28;20432;-48
2022/10/19 07:24:54;;;;;;;35.00;32.40;;;;;;;10.45;100.00;102881.53;5032914;28;20498;-53
2022/10/19 07:27:22;;;;;;;34.13;31.70;;;;;;;10.42;100.00;102881.00;5032668;28;20471;-51
2022/10/19 07:29:50;;;;;;;36.10;33.00;;;;;;;10.34;100.00;102887.03;5032048;28;20468;-50
2022/10/19 07:32:17;;;;;;;34.60;32.37;;;;;;;10.28;100.00;102889.44;5032296;28;20471;-51
2022/10/19 07:34:45;;;;;;;36.47;33.57;;;;;;;10.29;100.00;102881.31;5032427;28;20440;-53
2022/10/19 07:37:12;;;;;;;35.20;32.63;;;;;;;10.30;100.00;102893.66;5032329;28;20514;-48
2022/10/19 07:39:41;;;;;;;35.57;33.03;;;;;;;10.30;100.00;102898.16;5031958;28;20472;-51
2022/10/19 07:42:09;;;;;;;36.00;33.40;;;;;;;10.32;100.00;102896.16;5032241;28;20482;-49
2022/10/19 07:44:37;;;;;;;36.63;34.00;;;;;;;10.33;100.00;102906.72;5032301;28;20775;-49
2022/10/19 07:47:05;;;;;;;37.43;34.60;;;;;;;10.39;100.00;102914.09;5032199;28;20510;-50
2022/10/19 07:49:32;;;;;;;37.57;35.03;;;;;;;10.48;100.00;102907.91;5031707;28;20518;-50
2022/10/19 07:52:00;;;;;;;37.07;34.60;;;;;;;10.52;100.00;102916.47;5032095;28;20525;-50
2022/10/19 07:54:27;;;;;;;34.60;32.53;;;;;;;10.63;100.00;102911.00;5032058;28;20937;-53
2022/10/19 07:56:56;;;;;;;37.30;34.80;;;;;;;10.70;100.00;102914.75;5032150;28;20455;-53
2022/10/19 07:59:24;;;;;;;36.37;33.53;;;;;;;10.77;100.00;102912.34;5031532;28;20491;-52
2022/10/19 08:01:53;;;;;;;37.40;34.87;;;;;;;10.90;100.00;102912.88;5031738;28;20435;-51
2022/10/19 08:04:21;;;;;;;35.60;33.40;;;;;;;10.95;100.00;102913.28;5032229;28;20444;-48
2022/10/19 08:07:09;;;;;;;34.67;32.70;;;;;;;10.94;100.00;102917.78;5031934;28;20491;-53
2022/10/19 08:09:36;;;;;;;36.53;34.07;;;;;;;11.01;100.00;102912.69;5031413;28;20456;-49
2022/10/19 08:12:20;;;;;;;34.27;32.27;;;;;;;11.02;100.00;102912.53;5031445;28;20486;-53
2022/10/19 08:14:48;;;;;;;35.87;33.50;;;;;;;11.14;100.00;102912.38;5032051;28;20466;-56
2022/10/19 08:17:16;;;;;;;37.60;35.03;;;;;;;11.12;100.00;102915.16;5031873;28;20452;-50
2022/10/19 08:19:44;;;;;;;35.90;33.90;;;;;;;11.28;100.00;102915.38;5031143;28;20460;-48
2022/10/19 08:22:12;;;;;;;37.00;34.80;;;;;;;11.31;100.00;102920.44;5031512;28;20474;-51
2022/10/19 08:24:39;;;;;;;38.20;36.10;;;;;;;11.36;100.00;102919.97;5031734;28;20435;-50
2022/10/19 08:27:07;;;;;;;38.03;35.73;;;;;;;11.34;100.00;102916.63;5031297;28;20862;-53
2022/10/19 08:29:36;;;;;;;39.77;37.77;;;;;;;11.31;100.00;102917.75;5031235;28;20550;-47
2022/10/19 08:32:04;;;;;;;37.07;34.67;;;;;;;11.18;100.00;102914.59;5031454;28;20486;-54
2022/10/19 08:34:32;;;;;;;35.07;33.27;;;;;;;11.10;100.00;102927.84;5031654;28;20490;-54
2022/10/19 08:37:01;;;;;;;35.30;33.30;;;;;;;11.06;100.00;102924.63;5031560;28;20475;-50
2022/10/19 08:39:46;;;;;;;36.60;34.43;;;;;;;11.20;100.00;102919.78;5031418;28;20499;-50
2022/10/19 08:42:18;;;;;;;38.00;35.90;;;;;;;11.29;100.00;102919.72;5031480;28;20436;-51
2022/10/19 08:45:03;;;;;;;35.70;33.90;;;;;;;11.56;100.00;102917.03;5031732;28;20440;-49
2022/10/19 08:47:45;;;;;;;36.10;34.10;;;;;;;11.59;100.00;102921.22;5031035;28;20790;-56
2022/10/19 08:50:20;;;;;;;35.80;33.67;;;;;;;11.74;100.00;102921.63;5031463;28;20933;-53
2022/10/19 08:52:53;;;;;;;34.57;32.43;;;;;;;11.86;100.00;102907.00;5031293;28;20475;-49
2022/10/19 08:55:30;;;;;;;34.90;32.97;;;;;;;11.89;100.00;102904.03;5031559;28;20837;-51
2022/10/19 08:58:06;;;;;;;35.63;33.93;;;;;;;12.02;100.00;102896.47;5031047;28;20537;-52
2022/10/19 09:00:42;;;;;;;33.90;32.43;;;;;;;11.93;100.00;102902.75;5031640;28;20463;-50
2022/10/19 09:03:19;;;;;;;36.03;34.10;;;;;;;12.02;100.00;102905.34;5031314;28;20952;-48
2022/10/19 09:06:18;;;;;;;34.50;32.63;;;;;;;12.15;100.00;102910.31;5031340;28;20515;-51
2022/10/19 09:08:47;;;;;;;34.60;33.10;;;;;;;12.23;100.00;102905.03;5030880;28;20471;-53
2022/10/19 09:11:18;;;;;;;34.47;32.97;;;;;;;12.18;100.00;102910.81;5031190;28;20517;-53
2022/10/19 09:13:48;;;;;;;34.70;32.80;;;;;;;12.34;100.00;102907.44;5031234;28;20440;-48
2022/10/19 09:16:34;;;;;;;34.83;33.03;;;;;;;12.29;100.00;102901.72;5031515;28;20539;-48
2022/10/19 09:19:03;;;;;;;36.73;34.97;;;;;;;12.31;100.00;102914.94;5030712;28;20469;-51
2022/10/19 09:21:40;;;;;;;35.50;34.00;;;;;;;12.42;100.00;102912.03;5031350;28;20514;-53
2022/10/19 09:24:26;;;;;;;35.10;33.30;;;;;;;12.48;100.00;102912.25;5031236;28;20510;-53
2022/10/19 09:26:56;;;;;;;35.60;33.77;;;;;;;12.56;100.00;102923.00;5031090;28;21055;-55
2022/10/19 09:29:29;;;;;;;33.50;32.10;;;;;;;12.72;100.00;102916.94;5030673;28;20518;-54
2022/10/19 09:32:01;;;;;;;33.60;32.20;;;;;;;12.67;100.00;102924.56;5030827;28;20472;-51
2022/10/19 09:34:33;;;;;;;31.83;30.47;;;;;;;12.72;100.00;102922.28;5031270;28;20440;-50
2022/10/19 09:37:01;;;;;;;31.07;29.77;;;;;;;12.58;100.00;102920.16;5031125;28;20448;-50
2022/10/19 09:39:30;;;;;;;30.50;28.80;;;;;;;12.74;100.00;102920.28;5032319;28;20480;-52
2022/10/19 09:41:59;;;;;;;30.17;28.97;;;;;;;12.88;100.00;102929.53;5034231;28;20432;-55
2022/10/19 09:44:27;;;;;;;30.13;28.90;;;;;;;12.82;100.00;102931.03;5034683;28;20859;-55
2022/10/19 09:47:03;;;;;;;30.17;28.90;;;;;;;12.88;100.00;102934.91;5034384;28;21039;-54
2022/10/19 09:49:40;;;;;;;29.70;28.40;;;;;;;12.96;100.00;102935.78;5034123;28;20463;-53
2022/10/19 09:52:23;;;;;;;29.13;27.97;;;;;;;13.10;100.00;102934.41;5034051;28;21011;-55
2022/10/19 09:55:00;;;;;;;32.00;30.50;;;;;;;13.20;100.00;102943.97;5034156;28;20436;-51
2022/10/19 09:57:29;;;;;;;30.83;29.50;;;;;;;13.29;99.69;102939.50;5034070;28;20454;-50
2022/10/19 09:59:56;;;;;;;29.03;27.93;;;;;;;13.32;96.98;102945.38;5034272;28;20863;-53
2022/10/19 10:02:31;;;;;;;29.63;28.33;;;;;;;13.37;94.59;102944.91;5033895;28;20424;-54
2022/10/19 10:05:06;;;;;;;28.07;26.87;;;;;;;13.26;91.28;102953.25;5034154;28;20758;-54
2022/10/19 10:07:37;;;;;;;28.00;26.60;;;;;;;13.40;92.99;102951.78;5033551;28;21042;-51
2022/10/19 10:10:20;;;;;;;28.20;26.93;;;;;;;13.49;92.57;102948.97;5034140;28;21000;-53
2022/10/19 10:12:53;;;;;;;27.87;26.40;;;;;;;13.53;95.05;102953.00;5033815;28;20474;-48
2022/10/19 10:15:24;;;;;;;27.90;26.67;;;;;;;13.73;94.90;102956.25;5033930;28;20798;-52
2022/10/19 10:17:55;;;;;;;27.50;26.20;;;;;;;13.76;93.18;102961.28;5033730;28;20499;-54
2022/10/19 10:20:27;;;;;;;25.67;24.87;;;;;;;13.74;89.52;102953.41;5033887;28;20503;-51
2022/10/19 10:22:58;;;;;;;25.50;24.50;;;;;;;13.50;87.04;102971.25;5033754;28;20436;-51
2022/10/19 10:25:29;;;;;;;25.10;24.20;;;;;;;13.56;86.50;102968.75;5033889;28;20486;-53
2022/10/19 10:28:00;;;;;;;24.80;23.90;;;;;;;13.71;88.01;102960.91;5033437;28;21006;-54
2022/10/19 10:30:33;;;;;;;24.20;23.40;;;;;;;13.64;87.55;102960.75;5033862;28;20436;-51
2022/10/19 10:33:04;;;;;;;23.30;22.50;;;;;;;13.54;86.05;102968.09;5033581;28;20506;-53
2022/10/19 10:35:52;;;;;;;22.60;21.80;;;;;;;13.68;85.28;102963.94;5033922;28;20436;-53
2022/10/19 10:38:24;;;;;;;20.50;19.80;;;;;;;13.75;83.53;102963.13;5032972;28;20467;-53
2022/10/19 10:40:56;;;;;;;20.97;20.37;;;;;;;13.85;82.91;102963.00;5033190;28;20467;-51
2022/10/19 10:43:38;;;;;;;18.67;18.07;;;;;;;13.96;81.11;102964.50;5033602;28;20463;-53
2022/10/19 10:46:13;;;;;;;18.90;18.13;;;;;;;14.11;82.33;102963.69;5033657;28;20438;-53
2022/10/19 10:48:45;;;;;;;17.47;16.97;;;;;;;14.25;80.45;102964.88;5032736;28;20459;-50
2022/10/19 10:51:21;;;;;;;15.27;14.87;;;;;;;14.28;76.95;102968.06;5033182;28;20844;-50
2022/10/19 10:53:49;;;;;;;13.70;13.40;;;;;;;14.25;70.45;102956.81;5033140;28;20476;-55
2022/10/19 10:56:27;;;;;;;12.03;11.73;;;;;;;14.41;68.33;102956.88;5033156;28;20490;-50
2022/10/19 10:59:00;;;;;;;12.40;11.90;;;;;;;14.62;70.92;102961.72;5032677;28;20463;-53
2022/10/19 11:01:31;;;;;;;11.10;10.70;;;;;;;14.58;68.88;102952.31;5033163;28;20435;-52
2022/10/19 11:04:07;;;;;;;10.63;10.00;;;;;;;14.63;68.37;102949.97;5033111;28;20522;-51
2022/10/19 11:06:43;;;;;;;10.60;10.20;;;;;;;14.59;67.61;102946.78;5033019;28;20448;-50
2022/10/19 11:09:18;;;;;;;10.13;9.80;;;;;;;14.56;66.94;102949.81;5032400;28;20456;-53
2022/10/19 11:11:49;;;;;;;9.20;9.00;;;;;;;14.57;66.03;102947.97;5033136;28;20408;-54
2022/10/19 11:14:30;;;;;;;8.37;8.00;;;;;;;14.47;64.37;102941.94;5033085;28;20819;-51
2022/10/19 11:17:02;;;;;;;8.57;8.37;;;;;;;14.51;66.79;102951.34;5032753;28;20506;-53
2022/10/19 11:19:35;;;;;;;8.90;8.60;;;;;;;14.62;66.48;102948.31;5032297;28;20595;-54
2022/10/19 11:22:15;;;;;;;7.50;7.20;;;;;;;14.59;65.35;102940.59;5032234;28;20432;-55
2022/10/19 11:25:01;;;;;;;7.40;7.10;;;;;;;14.64;62.67;102947.13;5032776;28;20502;-50